Time;durP1;ratioP1;P1;durP2;ratioP2;P2;SDS_P1;SDS_P2;PMS_P1;PMS_P2;Temp;Humidity;BMP_temperature;BMP_pressure;BME280_temperature;BME280_humidity;BME280_pressure;Samples;Min_cycle;Max_cycle;Signal;HPM_P1;HPM_P2
2021/06/12 06:51:55;;;;;;;28.70;18.33;;;;;;;20.54;69.52;99079.19;5181498;23;20111;-86
2021/06/12 06:54:21;;;;;;;26.42;17.38;;;;;;;20.57;69.87;99081.19;4895303;29;20048;-86
2021/06/12 06:56:56;;;;;;;26.47;19.67;;;;;;;20.57;68.56;99080.41;4885450;29;20529;-84
2021/06/12 06:59:23;;;;;;;33.05;20.17;;;;;;;20.71;69.63;99090.81;4879601;29;20656;-74
2021/06/12 07:01:49;;;;;;;39.43;21.00;;;;;;;20.69;69.74;99079.28;4897025;29;20056;-84
2021/06/12 07:04:15;;;;;;;28.67;20.58;;;;;;;20.73;69.45;99083.69;4900074;29;20044;-75
2021/06/12 07:06:42;;;;;;;29.30;20.80;;;;;;;20.85;69.49;99083.34;4901544;29;20053;-76
2021/06/12 07:09:08;;;;;;;33.92;20.02;;;;;;;20.87;68.57;99082.97;4908489;29;20036;-73
2021/06/12 07:11:34;;;;;;;28.37;21.20;;;;;;;20.84;68.82;99073.44;4915422;29;20054;-72
2021/06/12 07:14:00;;;;;;;33.38;18.90;;;;;;;20.93;65.86;99078.66;4896583;29;20055;-72
2021/06/12 07:16:26;;;;;;;24.63;17.53;;;;;;;20.99;65.86;99085.44;4896471;29;20446;-72
2021/06/12 07:18:54;;;;;;;;;;;;;;;21.03;65.84;99077.91;4896501;29;20128;-79
2021/06/12 07:21:20;;;;;;;29.20;19.40;;;;;;;21.12;66.52;99083.09;4896720;29;19930;-72
2021/06/12 07:24:02;;;;;;;32.97;20.33;;;;;;;21.16;67.84;99081.16;4903859;29;20036;-74
2021/06/12 07:26:29;;;;;;;35.15;18.92;;;;;;;21.16;66.43;99080.34;4896355;29;20056;-72
2021/06/12 07:28:55;;;;;;;19.87;16.77;;;;;;;21.08;64.71;99074.75;4903850;29;20517;-74
2021/06/12 07:31:21;;;;;;;25.92;19.10;;;;;;;21.10;66.03;99077.94;4902953;29;20112;-72
2021/06/12 07:33:47;;;;;;;28.65;19.67;;;;;;;21.18;65.93;99075.97;4900029;29;20518;-73
2021/06/12 07:36:13;;;;;;;29.17;22.30;;;;;;;21.26;67.34;99074.06;4898621;29;20073;-73
2021/06/12 07:38:39;;;;;;;28.57;22.30;;;;;;;21.27;68.32;99073.66;4904068;29;20441;-73
2021/06/12 07:41:05;;;;;;;34.03;24.25;;;;;;;21.35;66.55;99074.50;4902868;29;20040;-77
2021/06/12 07:43:31;;;;;;;38.73;24.37;;;;;;;21.45;67.78;99070.16;4899505;29;20072;-76
2021/06/12 07:45:59;;;;;;;32.90;23.08;;;;;;;21.52;66.55;99075.75;4900804;29;20299;-74
2021/06/12 07:48:25;;;;;;;25.77;20.35;;;;;;;21.51;64.08;99071.38;4905960;29;20042;-74
2021/06/12 07:50:51;;;;;;;27.30;21.57;;;;;;;21.33;64.18;99062.94;4922101;29;20147;-72
2021/06/12 07:53:17;;;;;;;30.77;22.43;;;;;;;21.36;66.17;99064.97;4905745;29;20292;-72
2021/06/12 07:55:43;;;;;;;;;;;;;;;21.49;64.71;99070.97;4902918;29;20514;-72
2021/06/12 07:58:09;;;;;;;24.65;17.08;;;;;;;21.53;63.65;99063.44;4901956;29;19982;-74
2021/06/12 08:00:35;;;;;;;22.88;17.90;;;;;;;21.69;64.09;99057.50;4908137;29;20036;-75
2021/06/12 08:03:02;;;;;;;29.50;18.23;;;;;;;22.00;62.62;99072.69;4908690;29;20044;-76
2021/06/12 08:05:28;;;;;;;20.10;15.27;;;;;;;22.20;62.63;99071.13;4917301;29;20046;-74
2021/06/12 08:07:54;;;;;;;22.07;15.60;;;;;;;22.25;61.57;99067.16;4918530;29;20139;-75
2021/06/12 08:10:21;;;;;;;17.67;13.52;;;;;;;22.17;61.93;99071.13;4918508;29;20328;-72
2021/06/12 08:12:47;;;;;;;16.92;13.48;;;;;;;22.13;61.98;99068.31;4918392;29;20099;-73
2021/06/12 08:15:13;;;;;;;13.10;11.67;;;;;;;22.08;62.90;99062.34;4917194;29;20039;-73
2021/06/12 08:17:39;;;;;;;13.18;11.13;;;;;;;21.89;60.11;99064.31;4918315;29;20292;-73
2021/06/12 08:20:07;;;;;;;14.93;11.32;;;;;;;21.86;62.50;99072.66;4918407;29;20040;-81
2021/06/12 08:22:33;;;;;;;14.48;10.90;;;;;;;21.83;62.50;99062.31;4898146;29;20135;-81
2021/06/12 08:24:59;;;;;;;16.92;13.13;;;;;;;21.80;62.32;99063.91;4897890;29;20047;-76
2021/06/12 08:27:25;;;;;;;18.27;12.18;;;;;;;21.95;61.97;99071.09;4900758;29;20113;-73
2021/06/12 08:29:51;;;;;;;14.18;11.85;;;;;;;21.95;61.62;99067.50;4904048;29;20047;-79
2021/06/12 08:32:17;;;;;;;14.57;11.80;;;;;;;21.73;62.47;99053.56;4893514;29;20549;-80
2021/06/12 08:34:43;;;;;;;14.23;12.73;;;;;;;21.67;62.63;99057.91;4898810;29;20311;-78
2021/06/12 08:37:10;;;;;;;14.27;12.43;;;;;;;21.70;63.92;99071.03;4897024;29;20032;-80
2021/06/12 08:39:36;;;;;;;14.27;12.10;;;;;;;21.59;62.63;99067.44;4894237;29;20040;-80
2021/06/12 08:42:03;;;;;;;15.93;11.67;;;;;;;21.62;62.24;99063.84;4904574;29;20426;-78
2021/06/12 08:44:30;;;;;;;21.52;15.93;;;;;;;21.65;64.01;99051.16;4897436;29;20131;-78
2021/06/12 08:46:57;;;;;;;17.70;14.82;;;;;;;21.90;62.79;99065.91;4905133;29;20075;-80
2021/06/12 08:49:24;;;;;;;19.88;13.27;;;;;;;21.99;61.84;99069.09;4914515;29;20044;-79
2021/06/12 08:51:50;;;;;;;17.95;14.18;;;;;;;21.91;62.80;99069.47;4896211;29;20056;-82
2021/06/12 08:54:18;;;;;;;21.00;15.18;;;;;;;21.84;63.65;99052.78;4900205;29;20135;-79
2021/06/12 08:56:46;;;;;;;17.27;15.38;;;;;;;21.73;63.44;99022.16;4897920;29;20052;-78
2021/06/12 08:59:14;;;;;;;17.98;13.48;;;;;;;22.08;62.22;99068.69;4894730;29;20124;-79
2021/06/12 09:01:42;;;;;;;19.00;14.18;;;;;;;22.11;63.69;99061.56;4897815;29;20536;-78
2021/06/12 09:04:09;;;;;;;17.05;14.10;;;;;;;21.99;62.72;99048.84;4897092;29;20028;-80
2021/06/12 09:06:35;;;;;;;19.27;14.05;;;;;;;22.07;63.31;99055.97;4897046;29;20048;-78
2021/06/12 09:09:01;;;;;;;18.88;14.07;;;;;;;21.84;61.71;99058.34;4906692;29;20047;-79
2021/06/12 09:11:34;;;;;;;16.80;13.60;;;;;;;21.71;63.01;99047.59;4898716;29;20507;-79
2021/06/12 09:14:01;;;;;;;17.40;12.15;;;;;;;21.70;62.43;99059.13;4897583;29;20515;-78
2021/06/12 09:16:30;;;;;;;14.82;12.88;;;;;;;21.79;61.94;99063.13;4897619;29;20126;-80
2021/06/12 09:19:07;;;;;;;14.98;12.13;;;;;;;21.69;62.49;99049.97;4897095;29;20040;-78
2021/06/12 09:21:38;;;;;;;16.35;11.15;;;;;;;21.77;61.29;99061.91;4898660;29;20612;-78
2021/06/12 09:24:19;;;;;;;14.40;12.57;;;;;;;21.89;62.31;99058.75;4896441;29;20108;-79
2021/06/12 09:26:51;;;;;;;12.48;11.18;;;;;;;21.95;61.92;99070.28;4896201;29;20785;-81
2021/06/12 09:29:19;;;;;;;16.60;12.55;;;;;;;21.69;62.41;99046.38;4897004;29;20041;-81
2021/06/12 09:31:48;;;;;;;17.10;13.02;;;;;;;21.65;63.72;99056.72;4893335;29;20037;-82
2021/06/12 09:34:22;;;;;;;16.15;12.60;;;;;;;21.45;63.34;99067.38;4900290;29;20051;-82
2021/06/12 09:36:51;;;;;;;15.27;13.07;;;;;;;21.21;64.64;99050.19;4879859;29;20040;-80
2021/06/12 09:39:23;;;;;;;15.13;12.75;;;;;;;21.17;64.82;99046.59;4879462;29;20040;-80
2021/06/12 09:41:55;;;;;;;15.07;13.48;;;;;;;21.22;64.99;99062.88;4878951;29;20044;-81
2021/06/12 09:44:36;;;;;;;21.75;13.80;;;;;;;21.30;64.74;99049.84;4896392;29;20044;-77
2021/06/12 09:47:05;;;;;;;18.33;13.27;;;;;;;21.63;65.46;99054.34;4895717;29;20037;-75
2021/06/12 09:49:35;;;;;;;22.50;14.10;;;;;;;21.68;65.03;99045.59;4896193;29;20040;-77
2021/06/12 09:52:08;;;;;;;19.10;14.52;;;;;;;21.98;62.88;99053.56;4900384;29;20506;-82
2021/06/12 09:54:45;;;;;;;21.90;13.85;;;;;;;22.01;62.71;99040.88;4898938;29;20123;-81
2021/06/12 09:57:18;;;;;;;20.10;14.48;;;;;;;22.10;63.27;99048.84;4900908;29;20585;-83
2021/06/12 09:59:51;;;;;;;16.80;13.73;;;;;;;22.04;62.69;99048.44;4905073;29;20537;-75
2021/06/12 10:02:37;;;;;;;17.15;14.25;;;;;;;22.26;63.30;99047.28;4898040;29;20052;-81
2021/06/12 10:05:08;;;;;;;15.82;13.77;;;;;;;22.39;62.51;99047.66;4882881;29;20775;-89
2021/06/12 10:07:36;;;;;;;16.23;13.88;;;;;;;22.50;62.73;99051.22;4900897;29;20763;-80
2021/06/12 10:10:07;;;;;;;16.55;13.40;;;;;;;22.57;62.11;99046.84;4898982;29;20041;-77
2021/06/12 10:12:34;;;;;;;25.67;15.02;;;;;;;22.72;61.03;99045.63;4904987;29;20059;-77
2021/06/12 10:15:06;;;;;;;20.05;15.50;;;;;;;22.74;60.11;99038.44;4898714;29;20051;-80
2021/06/12 10:17:48;;;;;;;17.25;14.70;;;;;;;22.78;60.58;99037.63;4894580;29;20098;-80
2021/06/12 10:20:17;;;;;;;19.48;14.27;;;;;;;22.81;59.51;99034.84;4899379;29;20045;-75
2021/06/12 10:22:45;;;;;;;19.05;14.40;;;;;;;22.84;59.88;99036.03;4900628;29;20055;-77
2021/06/12 10:25:14;;;;;;;18.30;13.85;;;;;;;22.99;59.44;99037.63;4894118;29;20443;-75
2021/06/12 10:27:41;;;;;;;17.23;15.00;;;;;;;22.72;59.47;99012.97;4901341;29;20037;-83
2021/06/12 10:30:11;;;;;;;19.40;14.70;;;;;;;22.80;58.88;99021.31;4893453;29;20379;-77
2021/06/12 10:32:44;;;;;;;21.73;16.00;;;;;;;22.81;59.77;99020.13;4906308;29;20036;-85
2021/06/12 10:35:15;;;;;;;17.83;15.13;;;;;;;22.84;59.44;99008.94;4902732;29;20051;-83
2021/06/12 10:38:17;;;;;;;18.35;15.13;;;;;;;23.16;58.64;99017.22;4903670;29;20053;-78
2021/06/12 10:40:56;;;;;;;21.98;15.25;;;;;;;23.56;57.08;99011.44;4895778;29;20059;-78
2021/06/12 10:43:27;;;;;;;20.55;17.67;;;;;;;23.81;56.10;99002.94;4894104;29;20040;-81
2021/06/12 10:46:07;;;;;;;20.55;16.52;;;;;;;23.80;57.06;99004.94;4895067;29;20052;-77
2021/06/12 10:48:44;;;;;;;20.48;16.70;;;;;;;23.87;57.32;98990.13;4899679;29;20123;-78
2021/06/12 10:51:33;;;;;;;21.38;17.42;;;;;;;23.68;57.55;98975.53;4901270;29;20048;-74
2021/06/12 10:54:18;;;;;;;20.33;16.65;;;;;;;23.88;57.82;98992.53;4881291;29;20051;-81
2021/06/12 10:56:47;;;;;;;22.17;17.52;;;;;;;23.94;56.44;98984.50;4887659;29;20112;-77
2021/06/12 10:59:36;;;;;;;20.35;17.02;;;;;;;24.01;56.62;98989.25;4897141;29;20067;-78
2021/06/12 11:02:12;;;;;;;18.10;15.75;;;;;;;24.03;57.10;98972.84;4893078;29;20131;-78
2021/06/12 11:04:51;;;;;;;19.17;15.67;;;;;;;24.26;55.11;98975.03;4892162;29;20037;-78
2021/06/12 11:07:27;;;;;;;19.27;14.23;;;;;;;24.26;52.88;98983.41;4888394;29;20307;-79
2021/06/12 11:10:19;;;;;;;20.13;15.10;;;;;;;24.42;54.17;98975.31;4889679;29;20049;-77
2021/06/12 11:12:56;;;;;;;17.50;15.48;;;;;;;24.36;54.06;98971.34;4885491;29;20100;-76
2021/06/12 11:15:23;;;;;;;19.90;14.70;;;;;;;24.50;53.52;98971.25;4886543;29;20842;-78
2021/06/12 11:18:17;;;;;;;19.57;15.70;;;;;;;24.66;52.25;98959.47;4883763;29;20072;-77
2021/06/12 11:20:59;;;;;;;18.75;16.25;;;;;;;24.71;52.59;98955.44;4886943;29;20296;-77
2021/06/12 11:23:56;;;;;;;23.73;15.52;;;;;;;24.72;53.00;98954.22;4888388;29;20047;-74
2021/06/12 11:26:24;;;;;;;18.73;15.85;;;;;;;24.46;53.54;98950.13;4888159;29;20045;-74
2021/06/12 11:29:11;;;;;;;21.20;15.68;;;;;;;24.44;52.89;98938.59;4886739;29;20490;-74
2021/06/12 11:31:40;;;;;;;17.05;13.75;;;;;;;24.46;53.43;98948.13;4890312;29;20055;-74
2021/06/12 11:34:11;;;;;;;16.00;14.30;;;;;;;24.74;52.46;98935.84;4890030;29;20040;-76
2021/06/12 11:36:37;;;;;;;17.52;15.43;;;;;;;24.77;51.57;98937.00;4891482;29;20037;-78
2021/06/12 11:39:04;;;;;;;15.77;14.13;;;;;;;24.68;51.66;98939.50;4890409;29;20135;-74
2021/06/12 11:41:30;;;;;;;16.50;13.30;;;;;;;24.63;50.02;98934.34;4874650;29;20048;-85
2021/06/12 11:43:56;;;;;;;24.02;15.45;;;;;;;24.72;51.21;98940.25;4870612;29;20183;-74
2021/06/12 11:46:25;;;;;;;21.10;17.00;;;;;;;24.64;50.13;98941.56;4886280;29;20135;-78
2021/06/12 11:48:53;;;;;;;17.10;15.23;;;;;;;24.59;50.88;98935.19;4888674;29;20045;-74
2021/06/12 11:51:26;;;;;;;16.45;14.50;;;;;;;24.81;51.62;98937.75;4888964;29;20048;-77
2021/06/12 11:54:21;;;;;;;19.10;14.80;;;;;;;24.83;51.46;98933.31;4886455;29;20044;-73
2021/06/12 11:56:54;;;;;;;22.30;16.15;;;;;;;24.81;51.28;98932.16;4870075;29;20068;-73
2021/06/12 11:59:22;;;;;;;19.85;15.52;;;;;;;24.42;51.08;98935.41;4872607;29;20052;-76
2021/06/12 12:02:09;;;;;;;17.15;15.35;;;;;;;24.46;51.82;98931.34;4884494;29;20040;-72
2021/06/12 12:04:46;;;;;;;18.08;15.43;;;;;;;24.47;53.40;98932.13;4888467;29;20115;-73
2021/06/12 12:07:15;;;;;;;21.90;15.07;;;;;;;24.59;51.53;98928.81;4890631;29;20040;-77
2021/06/12 12:09:47;;;;;;;18.17;14.77;;;;;;;24.43;49.54;98923.78;4887872;29;20108;-74
2021/06/12 12:12:17;;;;;;;15.55;13.93;;;;;;;24.43;51.39;98923.78;4890082;29;20832;-74
2021/06/12 12:14:46;;;;;;;17.52;13.32;;;;;;;24.39;50.39;98909.06;4905388;29;20063;-74
2021/06/12 12:17:27;;;;;;;14.40;12.90;;;;;;;24.56;50.15;98916.47;4891684;29;20044;-77
2021/06/12 12:20:04;;;;;;;15.05;12.95;;;;;;;24.77;50.42;98914.63;4899420;29;20143;-73
2021/06/12 12:22:40;;;;;;;14.20;12.60;;;;;;;24.75;50.00;98901.06;4887029;29;20562;-77
2021/06/12 12:25:10;;;;;;;16.20;13.00;;;;;;;24.80;48.73;98897.81;4886855;29;20099;-74
2021/06/12 12:27:36;;;;;;;17.25;14.07;;;;;;;24.80;49.05;98886.63;4888087;29;20536;-73
2021/06/12 12:30:06;;;;;;;15.77;12.65;;;;;;;24.85;49.95;98902.13;4882458;29;20123;-73
2021/06/12 12:32:32;;;;;;;14.43;12.82;;;;;;;24.74;49.83;98901.50;4884898;29;20147;-76
2021/06/12 12:35:16;;;;;;;15.82;13.30;;;;;;;24.77;49.64;98895.06;4885021;29;20056;-79
2021/06/12 12:37:44;;;;;;;16.02;12.18;;;;;;;25.01;50.31;98907.91;4885582;29;20049;-77
2021/06/12 12:40:20;;;;;;;12.88;11.48;;;;;;;24.93;47.87;98900.81;4884691;29;20068;-77
2021/06/12 12:42:46;;;;;;;13.30;11.27;;;;;;;24.95;48.69;98897.63;4880632;29;20430;-74
2021/06/12 12:45:13;;;;;;;15.27;11.68;;;;;;;25.01;48.64;98899.53;4884419;29;20068;-79
2021/06/12 12:47:40;;;;;;;16.00;12.20;;;;;;;24.83;49.22;98896.16;4884974;29;20059;-80
2021/06/12 12:50:07;;;;;;;12.70;11.40;;;;;;;24.85;50.55;98893.75;4884324;29;20047;-75
2021/06/12 12:52:34;;;;;;;13.23;11.93;;;;;;;24.88;49.95;98878.16;4882900;29;20063;-81
2021/06/12 12:55:04;;;;;;;13.38;11.27;;;;;;;24.94;48.69;98884.84;4890942;29;20135;-76
2021/06/12 12:57:45;;;;;;;15.65;10.68;;;;;;;24.93;49.66;98895.22;4883721;29;20033;-75
2021/06/12 13:00:21;;;;;;;12.18;9.90;;;;;;;24.89;49.01;98900.09;4882690;29;20044;-76
2021/06/12 13:02:54;;;;;;;12.27;10.03;;;;;;;24.79;48.79;98875.84;4880393;29;20079;-81
2021/06/12 13:05:20;;;;;;;13.98;10.35;;;;;;;24.84;49.47;98890.16;4878816;29;20040;-81
2021/06/12 13:08:01;;;;;;;20.88;10.90;;;;;;;24.88;49.16;98873.34;4883065;29;20047;-77
2021/06/12 13:10:39;;;;;;;18.10;11.25;;;;;;;25.12;48.71;98881.81;4879787;29;20047;-77
2021/06/12 13:13:15;;;;;;;13.80;11.15;;;;;;;25.12;49.28;98879.03;4879825;29;20041;-75
2021/06/12 13:15:54;;;;;;;16.63;11.45;;;;;;;24.99;48.66;98878.78;4881486;29;20044;-78
2021/06/12 13:18:21;;;;;;;13.73;10.80;;;;;;;25.19;49.45;98882.50;4880497;29;20503;-74
2021/06/12 13:20:48;;;;;;;14.48;12.77;;;;;;;25.18;48.60;98871.75;4881674;29;20052;-78
2021/06/12 13:23:25;;;;;;;28.15;23.00;;;;;;;24.89;49.43;98872.13;4881344;29;20869;-78
2021/06/12 13:26:25;;;;;;;16.25;12.50;;;;;;;24.92;48.97;98881.69;4880315;29;20049;-75
2021/06/12 13:28:54;;;;;;;13.68;12.18;;;;;;;24.84;48.75;98881.00;4881842;29;20633;-73
2021/06/12 13:31:23;;;;;;;16.63;11.38;;;;;;;25.03;50.45;98876.72;4881563;29;20032;-72
2021/06/12 13:33:51;;;;;;;12.65;11.30;;;;;;;25.19;50.10;98881.72;4881350;29;20048;-72
2021/06/12 13:36:20;;;;;;;15.40;11.02;;;;;;;25.22;49.31;98864.09;4873165;29;20569;-72
2021/06/12 13:38:53;;;;;;;14.82;11.13;;;;;;;25.28;48.33;98863.19;4870110;29;20392;-72
2021/06/12 13:41:21;;;;;;;13.10;11.15;;;;;;;25.33;48.50;98869.50;4880687;29;20047;-74
2021/06/12 13:43:49;;;;;;;14.05;11.63;;;;;;;25.12;49.78;98865.84;4879956;29;20427;-73
2021/06/12 13:46:17;;;;;;;15.05;10.18;;;;;;;24.96;47.95;98868.44;4879429;29;20071;-75
2021/06/12 13:48:45;;;;;;;14.60;11.23;;;;;;;24.86;49.92;98850.59;4880864;29;20044;-80
2021/06/12 13:51:14;;;;;;;13.02;10.88;;;;;;;24.77;49.11;98855.94;4887828;29;20067;-76
2021/06/12 13:53:41;;;;;;;13.52;10.57;;;;;;;24.67;48.53;98857.66;4882156;29;20068;-82
2021/06/12 13:56:10;;;;;;;19.30;11.77;;;;;;;24.61;50.77;98859.34;4891346;29;20064;-73
2021/06/12 13:58:38;;;;;;;16.17;11.40;;;;;;;24.58;52.13;98854.56;4883559;29;20051;-74
2021/06/12 14:01:05;;;;;;;14.90;11.73;;;;;;;24.49;50.68;98849.50;4881289;29;20088;-76
2021/06/12 14:03:32;;;;;;;13.50;11.25;;;;;;;24.64;50.47;98846.53;4880042;29;20184;-72
2021/06/12 14:05:59;;;;;;;14.02;11.88;;;;;;;24.60;51.66;98847.38;4875860;29;20188;-72
2021/06/12 14:08:25;;;;;;;13.45;10.85;;;;;;;24.69;51.08;98840.47;4868312;29;20059;-73
2021/06/12 14:10:51;;;;;;;;;;;;;;;24.63;50.38;98833.75;4878296;29;20052;-76
2021/06/12 14:13:18;;;;;;;13.77;11.60;;;;;;;24.54;49.77;98829.47;4878021;29;19923;-78
2021/06/12 14:15:44;;;;;;;15.60;11.02;;;;;;;24.50;51.31;98831.53;4877447;29;20112;-73
2021/06/12 14:18:10;;;;;;;15.07;11.57;;;;;;;24.55;52.37;98833.06;4873553;29;20311;-72
2021/06/12 14:20:38;;;;;;;14.77;11.52;;;;;;;24.48;50.94;98819.97;4890930;29;20159;-73
2021/06/12 14:23:05;;;;;;;12.30;10.38;;;;;;;24.44;49.34;98830.41;4877636;29;20044;-73
2021/06/12 14:25:33;;;;;;;11.38;10.20;;;;;;;24.52;48.85;98837.47;4876205;29;20080;-73
2021/06/12 14:28:00;;;;;;;14.60;9.85;;;;;;;24.68;48.91;98813.72;4876509;29;20151;-76
2021/06/12 14:30:29;;;;;;;11.45;9.82;;;;;;;24.98;48.63;98824.88;4876052;29;20044;-72
2021/06/12 14:32:55;;;;;;;12.60;10.77;;;;;;;25.36;47.59;98837.88;4879742;29;20044;-72
2021/06/12 14:35:24;;;;;;;12.48;10.45;;;;;;;25.44;48.15;98831.75;4875892;29;20627;-80
2021/06/12 14:37:50;;;;;;;22.95;11.57;;;;;;;25.65;46.43;98832.59;4873420;29;20036;-75
2021/06/12 14:40:19;;;;;;;20.52;10.77;;;;;;;25.76;47.70;98819.19;4879356;29;20112;-77
2021/06/12 14:42:46;;;;;;;15.90;11.35;;;;;;;26.05;46.48;98830.69;4869888;29;20049;-73
2021/06/12 14:45:13;;;;;;;12.93;11.55;;;;;;;26.27;46.46;98828.28;4874704;29;20068;-82
2021/06/12 14:47:40;;;;;;;20.63;11.32;;;;;;;26.48;46.17;98829.88;4874545;29;20036;-75
2021/06/12 14:50:08;;;;;;;;;;;;;;;26.20;47.14;98822.81;4869959;29;20036;-82
2021/06/12 14:52:35;;;;;;;12.73;10.32;;;;;;;25.66;46.23;98817.38;4877928;29;19974;-76
2021/06/12 14:55:04;;;;;;;13.05;10.90;;;;;;;25.35;48.52;98825.13;4871735;29;20406;-73
2021/06/12 14:57:30;;;;;;;12.40;11.10;;;;;;;24.99;48.31;98814.47;4899652;29;20044;-75
2021/06/12 14:59:58;;;;;;;12.23;10.82;;;;;;;24.93;49.70;98818.94;4913663;29;20039;-79
2021/06/12 15:02:24;;;;;;;16.20;12.07;;;;;;;24.74;49.57;98806.47;4902591;29;20048;-74
2021/06/12 15:04:53;;;;;;;21.73;12.90;;;;;;;24.47;50.17;98796.03;4892312;29;20041;-75
2021/06/12 15:07:19;;;;;;;15.55;12.63;;;;;;;24.39;49.66;98814.06;4896480;29;20601;-73
2021/06/12 15:09:45;;;;;;;14.20;11.27;;;;;;;24.36;50.57;98806.50;4894135;29;20403;-73
2021/06/12 15:12:11;;;;;;;34.85;18.00;;;;;;;24.38;50.83;98804.91;4893941;29;20048;-73
2021/06/12 15:14:39;;;;;;;20.65;15.10;;;;;;;24.28;50.06;98797.44;4905023;29;20029;-77
2021/06/12 15:17:05;;;;;;;23.42;14.10;;;;;;;24.17;51.41;98790.41;4903338;29;20130;-80
2021/06/12 15:19:31;;;;;;;17.42;13.35;;;;;;;24.14;50.96;98804.00;4900168;29;20536;-73
2021/06/12 15:21:58;;;;;;;17.75;13.60;;;;;;;23.97;51.49;98798.59;4906237;29;20048;-87
2021/06/12 15:24:25;;;;;;;14.57;11.90;;;;;;;23.88;51.81;98802.69;4898353;29;20421;-73
2021/06/12 15:26:51;;;;;;;;;;;;;;;23.73;51.54;98800.47;4902069;29;20180;-80
2021/06/12 15:29:17;;;;;;;17.67;13.68;;;;;;;23.62;53.01;98801.34;4904883;29;20010;-73
2021/06/12 15:31:43;;;;;;;18.20;12.93;;;;;;;23.57;53.24;98803.75;4904709;29;20573;-74
2021/06/12 15:34:09;;;;;;;25.17;16.17;;;;;;;23.72;54.10;98793.31;4903036;29;20047;-73
2021/06/12 15:36:35;;;;;;;17.40;15.03;;;;;;;23.91;52.24;98787.91;4903330;29;20052;-80
2021/06/12 15:39:03;;;;;;;20.52;16.08;;;;;;;24.10;52.60;98785.69;4902935;29;20048;-74
2021/06/12 15:41:29;;;;;;;14.88;12.57;;;;;;;24.12;50.56;98786.84;4901027;29;20044;-83
2021/06/12 15:43:57;;;;;;;18.20;13.23;;;;;;;24.03;51.64;98777.41;4899274;29;20051;-75
2021/06/12 15:46:24;;;;;;;22.33;15.63;;;;;;;23.97;51.01;98782.63;4897890;29;20041;-86
2021/06/12 15:48:50;;;;;;;19.60;12.68;;;;;;;23.95;51.71;98761.94;4893413;29;20036;-81
2021/06/12 15:51:16;;;;;;;16.65;14.05;;;;;;;24.08;50.98;98768.56;4899762;29;20063;-74
2021/06/12 15:53:43;;;;;;;15.13;11.90;;;;;;;24.01;49.85;98775.03;4912563;29;20052;-78
2021/06/12 15:56:09;;;;;;;20.47;14.77;;;;;;;24.05;51.81;98764.63;4894658;29;20040;-74
2021/06/12 15:58:36;;;;;;;19.63;15.60;;;;;;;24.05;51.56;98770.19;4910483;29;20521;-76
2021/06/12 16:01:03;;;;;;;25.63;16.35;;;;;;;24.07;50.90;98758.59;4902341;29;20059;-79
2021/06/12 16:03:29;;;;;;;18.55;11.95;;;;;;;23.97;51.79;98754.72;4898183;29;20040;-78
2021/06/12 16:05:56;;;;;;;21.97;14.73;;;;;;;23.84;51.57;98748.09;4901101;29;20047;-75
2021/06/12 16:08:23;;;;;;;17.05;12.88;;;;;;;23.86;51.53;98751.28;4904107;29;20359;-87
2021/06/12 16:10:49;;;;;;;18.77;14.70;;;;;;;23.73;52.65;98744.66;4907741;29;20063;-79
2021/06/12 16:13:15;;;;;;;18.63;13.10;;;;;;;23.76;52.42;98755.75;4885148;29;20040;-83
2021/06/12 16:15:41;;;;;;;18.52;13.48;;;;;;;23.76;52.80;98760.56;4910499;29;20731;-77
2021/06/12 16:18:09;;;;;;;16.10;12.43;;;;;;;23.70;52.83;98763.00;4909693;29;20040;-81
2021/06/12 16:20:35;;;;;;;12.98;11.10;;;;;;;23.52;52.58;98752.00;4919531;29;20406;-83
2021/06/12 16:23:03;;;;;;;17.48;12.32;;;;;;;23.38;54.21;98758.53;4913092;29;20515;-77
2021/06/12 16:25:29;;;;;;;21.33;13.05;;;;;;;23.17;54.39;98750.34;4904811;29;20581;-77
2021/06/12 16:27:55;;;;;;;20.10;12.10;;;;;;;23.12;54.29;98768.31;4911148;29;20044;-86
2021/06/12 16:30:25;;;;;;;16.13;11.60;;;;;;;23.01;54.45;98762.00;4903661;29;20040;-75
2021/06/12 16:32:55;;;;;;;16.70;12.25;;;;;;;22.88;55.16;98752.53;4906351;29;20289;-76
2021/06/12 16:35:22;;;;;;;21.83;16.02;;;;;;;22.78;54.89;98747.81;4910784;29;20071;-85
2021/06/12 16:37:48;;;;;;;15.20;12.43;;;;;;;22.64;55.33;98748.72;4914928;29;20052;-84
2021/06/12 16:40:15;;;;;;;15.23;12.80;;;;;;;22.45;55.15;98742.47;4901826;29;20045;-77
2021/06/12 16:42:43;;;;;;;15.38;12.40;;;;;;;22.45;56.12;98755.59;4913190;29;20047;-91
2021/06/12 16:45:12;;;;;;;14.85;11.23;;;;;;;22.37;55.96;98756.84;4909478;29;20044;-78
2021/06/12 16:47:39;;;;;;;14.30;10.68;;;;;;;22.19;55.35;98741.03;4899897;29;20137;-83
2021/06/12 16:50:08;;;;;;;13.82;11.18;;;;;;;22.15;55.58;98745.81;4896897;29;20515;-86
2021/06/12 16:52:36;;;;;;;16.00;10.93;;;;;;;22.03;55.60;98743.47;4916588;29;20135;-78
2021/06/12 17:00:22;;;;;;;17.70;14.57;;;;;;;21.75;57.39;98744.34;4912676;29;20103;-79
2021/06/12 17:02:49;;;;;;;26.48;16.23;;;;;;;21.62;57.12;98752.31;4905761;29;20044;-80
2021/06/12 17:05:17;;;;;;;16.92;13.18;;;;;;;21.58;58.12;98763.44;4908020;29;20418;-77
2021/06/12 17:07:43;;;;;;;19.60;13.63;;;;;;;21.54;58.29;98762.66;4910575;29;20503;-84
2021/06/12 17:10:14;;;;;;;19.75;14.55;;;;;;;21.54;58.91;98767.44;4895178;29;20067;-84
2021/06/12 17:12:42;;;;;;;17.67;13.35;;;;;;;21.50;58.87;98767.44;4897760;29;20123;-77
2021/06/12 17:15:09;;;;;;;19.38;14.25;;;;;;;21.45;59.08;98772.59;4897599;29;20514;-79
2021/06/12 17:17:35;;;;;;;19.80;14.02;;;;;;;21.47;59.07;98764.66;4897580;29;20040;-80
2021/06/12 17:20:02;;;;;;;17.93;13.17;;;;;;;21.35;59.33;98761.09;4894767;29;20044;-78
2021/06/12 17:22:29;;;;;;;15.80;13.07;;;;;;;21.28;59.77;98755.50;4897531;29;20337;-76
2021/06/12 17:24:55;;;;;;;18.95;13.30;;;;;;;21.41;59.82;98782.94;4897763;29;20094;-75
2021/06/12 17:27:25;;;;;;;17.03;13.13;;;;;;;21.43;59.61;98777.78;4898510;29;20471;-74
2021/06/12 17:29:55;;;;;;;22.15;12.88;;;;;;;21.66;58.27;98772.59;4891409;29;20135;-75
2021/06/12 17:32:25;;;;;;;20.00;13.85;;;;;;;21.82;58.32;98780.50;4894191;29;20113;-73
2021/06/12 17:34:52;;;;;;;19.02;14.73;;;;;;;21.69;59.40;98773.75;4926919;29;20040;-74
2021/06/12 17:37:18;;;;;;;28.50;15.27;;;;;;;21.47;59.88;98779.38;4905758;29;20064;-79
2021/06/12 17:39:44;;;;;;;25.38;14.45;;;;;;;21.35;60.23;98785.34;4915171;29;20080;-74
2021/06/12 17:42:10;;;;;;;18.20;14.47;;;;;;;21.38;60.14;98790.09;4903845;29;20070;-77
2021/06/12 17:44:38;;;;;;;28.90;16.50;;;;;;;21.40;60.32;98795.28;4896600;29;20518;-75
2021/06/12 17:47:04;;;;;;;26.60;16.05;;;;;;;21.29;60.83;98784.94;4897672;29;20044;-74
2021/06/12 17:49:30;;;;;;;20.67;15.18;;;;;;;21.28;60.52;98793.66;4907160;29;20088;-79
2021/06/12 17:51:56;;;;;;;20.80;14.30;;;;;;;21.10;60.62;98793.66;4898107;29;20057;-77
2021/06/12 17:54:23;;;;;;;22.77;15.45;;;;;;;20.99;61.05;98795.63;4889021;29;20096;-76
2021/06/12 17:56:49;;;;;;;24.77;17.67;;;;;;;20.90;61.52;98786.91;4896190;29;20040;-74
2021/06/12 17:59:16;;;;;;;35.47;22.02;;;;;;;20.83;61.47;98780.13;4888911;29;20044;-82
2021/06/12 18:01:42;;;;;;;30.52;22.42;;;;;;;20.75;61.79;98772.97;4876951;29;20152;-81
2021/06/12 18:04:08;;;;;;;39.28;26.95;;;;;;;20.65;62.12;98777.31;4894314;29;20058;-76
2021/06/12 18:06:34;;;;;;;34.97;24.83;;;;;;;20.58;62.93;98773.72;4913224;29;20048;-74
2021/06/12 18:09:03;;;;;;;33.08;23.55;;;;;;;20.47;63.14;98775.66;4884102;29;20447;-74
2021/06/12 18:11:29;;;;;;;37.45;21.65;;;;;;;20.41;63.79;98776.03;4894571;29;20498;-75
2021/06/12 18:13:58;;;;;;;29.80;21.23;;;;;;;20.38;64.29;98787.13;4885271;29;20032;-74
2021/06/12 18:16:24;;;;;;;37.55;23.77;;;;;;;20.31;64.45;98784.34;4894304;29;20127;-73
2021/06/12 18:18:50;;;;;;;43.83;28.73;;;;;;;20.24;64.84;98782.34;4886781;29;20454;-74
2021/06/12 18:21:16;;;;;;;51.60;26.20;;;;;;;20.18;64.98;98781.13;4894882;29;20048;-74
2021/06/12 18:23:44;;;;;;;45.20;22.10;;;;;;;20.05;65.34;98777.88;4885769;29;20072;-76
2021/06/12 18:26:10;;;;;;;;;;;;;;;20.05;65.39;98780.66;4894353;29;20048;-73